Ana Sayfa
METAR-TAF:

METAR-TAF

Havaalanları :

Starkville, Mississipi, Amerika Birleşik Devletleri

Enlem: 33-25-59N, Boylam: 088-50-55W, yükseklik: 101 m

Güncel hava durumu gözlemi

Rapor saat 18:15 UTC de 16 dakika önce yapıldı.
Sakin rüzgar
Sıcaklık 36°C
Nem 35%
Basınç 1014 hPa
Görüş mesafesi: 16.1 km
Açık gökyüzü

METAR: KSTF 251815Z AUTO 00000KT 10SM CLR 36/18 A2994 RMK AO2

Saat: 13:31 (18:31 UTC)


TAF: eksik

4.000'den fazla havaalanı için hava durumu gözlemleri ve tahminleri (METAR ve TAF raporları).

Kullanılabilir istasyonlar harita üzerinde sarı ve kırmızı noktalarla gösterilir.

İstasyonun adını görmek için fareyi noktanın üzerinde gezdirin.

Sonrasında hava gözlem ve tahminlerini görmek için tıklayın.

Haritayı değiştirmek için: yaklaştırmak için siyah artı işaretli yeşil düğmeye ve uzaklaştırmak için de eksi işaretli düğmeye hızla tıklayın; bitişik haritalar için yeşil okları kullanın.


METAR-TAF: